sensor_id;sensor_type;location;lat;lon;timestamp;P1;durP1;ratioP1;P2;durP2;ratioP2
10120;SDS011;5100;45.176;5.714;2022-07-06T00:00:50;1.52;;;0.90;;
10120;SDS011;5100;45.176;5.714;2022-07-06T00:03:17;1.40;;;1.30;;
10120;SDS011;5100;45.176;5.714;2022-07-06T00:05:43;1.27;;;1.10;;
10120;SDS011;5100;45.176;5.714;2022-07-06T00:08:09;1.37;;;1.27;;
10120;SDS011;5100;45.176;5.714;2022-07-06T00:10:35;1.27;;;1.10;;
10120;SDS011;5100;45.176;5.714;2022-07-06T00:13:01;1.30;;;1.08;;
10120;SDS011;5100;45.176;5.714;2022-07-06T00:15:27;1.55;;;1.17;;
10120;SDS011;5100;45.176;5.714;2022-07-06T00:17:54;1.23;;;1.10;;
10120;SDS011;5100;45.176;5.714;2022-07-06T00:20:20;1.05;;;1.02;;
10120;SDS011;5100;45.176;5.714;2022-07-06T00:22:46;1.23;;;1.10;;
10120;SDS011;5100;45.176;5.714;2022-07-06T00:25:13;1.92;;;1.08;;
10120;SDS011;5100;45.176;5.714;2022-07-06T00:27:39;1.30;;;1.20;;
10120;SDS011;5100;45.176;5.714;2022-07-06T00:30:05;1.20;;;1.10;;
10120;SDS011;5100;45.176;5.714;2022-07-06T00:32:32;4.12;;;1.10;;
10120;SDS011;5100;45.176;5.714;2022-07-06T00:34:58;3.42;;;1.20;;
10120;SDS011;5100;45.176;5.714;2022-07-06T00:37:24;3.30;;;1.23;;
10120;SDS011;5100;45.176;5.714;2022-07-06T00:39:50;5.85;;;1.80;;
10120;SDS011;5100;45.176;5.714;2022-07-06T00:42:16;1.10;;;1.00;;
10120;SDS011;5100;45.176;5.714;2022-07-06T00:44:42;1.40;;;1.30;;
10120;SDS011;5100;45.176;5.714;2022-07-06T00:47:09;1.60;;;1.20;;
10120;SDS011;5100;45.176;5.714;2022-07-06T00:49:35;3.50;;;1.10;;
10120;SDS011;5100;45.176;5.714;2022-07-06T00:52:20;1.20;;;1.10;;
10120;SDS011;5100;45.176;5.714;2022-07-06T00:54:46;1.52;;;1.10;;
10120;SDS011;5100;45.176;5.714;2022-07-06T00:57:13;2.08;;;1.33;;
10120;SDS011;5100;45.176;5.714;2022-07-06T00:59:39;3.58;;;1.60;;
10120;SDS011;5100;45.176;5.714;2022-07-06T01:02:05;3.62;;;1.40;;
10120;SDS011;5100;45.176;5.714;2022-07-06T01:04:32;1.80;;;1.10;;
10120;SDS011;5100;45.176;5.714;2022-07-06T01:06:58;1.85;;;1.10;;
10120;SDS011;5100;45.176;5.714;2022-07-06T01:09:24;1.27;;;1.10;;
10120;SDS011;5100;45.176;5.714;2022-07-06T01:11:50;1.30;;;1.20;;
10120;SDS011;5100;45.176;5.714;2022-07-06T01:14:18;2.35;;;1.10;;
10120;SDS011;5100;45.176;5.714;2022-07-06T01:16:45;1.30;;;1.20;;
10120;SDS011;5100;45.176;5.714;2022-07-06T01:19:12;1.27;;;1.10;;
10120;SDS011;5100;45.176;5.714;2022-07-06T01:21:38;2.03;;;1.00;;
10120;SDS011;5100;45.176;5.714;2022-07-06T01:24:04;1.20;;;1.10;;
10120;SDS011;5100;45.176;5.714;2022-07-06T01:26:30;1.95;;;1.00;;
10120;SDS011;5100;45.176;5.714;2022-07-06T01:28:57;2.20;;;0.93;;
10120;SDS011;5100;45.176;5.714;2022-07-06T01:31:24;1.25;;;1.17;;
10120;SDS011;5100;45.176;5.714;2022-07-06T01:33:52;1.05;;;1.00;;
10120;SDS011;5100;45.176;5.714;2022-07-06T01:36:20;1.23;;;1.12;;
10120;SDS011;5100;45.176;5.714;2022-07-06T01:38:47;2.00;;;1.02;;
10120;SDS011;5100;45.176;5.714;2022-07-06T01:41:14;1.33;;;1.10;;
10120;SDS011;5100;45.176;5.714;2022-07-06T01:43:40;1.02;;;1.00;;
10120;SDS011;5100;45.176;5.714;2022-07-06T01:46:06;6.47;;;1.10;;
10120;SDS011;5100;45.176;5.714;2022-07-06T01:48:32;1.30;;;1.20;;
10120;SDS011;5100;45.176;5.714;2022-07-06T01:50:59;3.28;;;0.90;;
10120;SDS011;5100;45.176;5.714;2022-07-06T01:53:25;1.00;;;1.00;;
10120;SDS011;5100;45.176;5.714;2022-07-06T01:55:51;1.35;;;1.15;;
10120;SDS011;5100;45.176;5.714;2022-07-06T01:58:17;2.35;;;1.30;;
10120;SDS011;5100;45.176;5.714;2022-07-06T02:00:44;1.42;;;1.10;;
10120;SDS011;5100;45.176;5.714;2022-07-06T02:03:10;4.87;;;1.15;;
10120;SDS011;5100;45.176;5.714;2022-07-06T02:05:36;1.15;;;1.10;;
10120;SDS011;5100;45.176;5.714;2022-07-06T02:08:03;2.60;;;1.10;;
10120;SDS011;5100;45.176;5.714;2022-07-06T02:10:32;1.40;;;0.90;;
10120;SDS011;5100;45.176;5.714;2022-07-06T02:12:58;1.20;;;1.10;;
10120;SDS011;5100;45.176;5.714;2022-07-06T02:15:24;1.05;;;0.95;;
10120;SDS011;5100;45.176;5.714;2022-07-06T02:17:50;3.95;;;1.23;;
10120;SDS011;5100;45.176;5.714;2022-07-06T02:20:16;1.40;;;0.90;;
10120;SDS011;5100;45.176;5.714;2022-07-06T02:22:43;1.10;;;1.00;;
10120;SDS011;5100;45.176;5.714;2022-07-06T02:25:09;1.30;;;1.08;;
10120;SDS011;5100;45.176;5.714;2022-07-06T02:27:36;3.12;;;1.17;;
10120;SDS011;5100;45.176;5.714;2022-07-06T02:30:03;3.80;;;1.23;;
10120;SDS011;5100;45.176;5.714;2022-07-06T02:32:31;2.37;;;1.20;;
10120;SDS011;5100;45.176;5.714;2022-07-06T02:34:57;4.18;;;1.00;;
10120;SDS011;5100;45.176;5.714;2022-07-06T02:37:24;2.00;;;1.10;;
10120;SDS011;5100;45.176;5.714;2022-07-06T02:39:50;4.18;;;1.17;;
10120;SDS011;5100;45.176;5.714;2022-07-06T02:42:17;1.23;;;1.12;;
10120;SDS011;5100;45.176;5.714;2022-07-06T02:44:43;1.33;;;1.10;;
10120;SDS011;5100;45.176;5.714;2022-07-06T02:47:09;1.10;;;1.00;;
10120;SDS011;5100;45.176;5.714;2022-07-06T02:49:36;1.73;;;1.10;;
10120;SDS011;5100;45.176;5.714;2022-07-06T02:52:02;1.48;;;1.10;;
10120;SDS011;5100;45.176;5.714;2022-07-06T02:54:30;2.12;;;1.30;;
10120;SDS011;5100;45.176;5.714;2022-07-06T02:56:56;0.93;;;0.93;;
10120;SDS011;5100;45.176;5.714;2022-07-06T02:59:23;1.83;;;1.17;;
10120;SDS011;5100;45.176;5.714;2022-07-06T03:01:49;2.05;;;1.02;;
10120;SDS011;5100;45.176;5.714;2022-07-06T03:04:16;0.95;;;0.90;;
10120;SDS011;5100;45.176;5.714;2022-07-06T03:06:43;2.53;;;1.33;;
10120;SDS011;5100;45.176;5.714;2022-07-06T03:09:10;1.55;;;1.15;;
10120;SDS011;5100;45.176;5.714;2022-07-06T03:11:37;1.08;;;1.00;;
10120;SDS011;5100;45.176;5.714;2022-07-06T03:14:03;3.12;;;1.30;;
10120;SDS011;5100;45.176;5.714;2022-07-06T03:16:31;1.30;;;1.10;;
10120;SDS011;5100;45.176;5.714;2022-07-06T03:18:58;1.30;;;1.20;;
10120;SDS011;5100;45.176;5.714;2022-07-06T03:21:24;1.10;;;1.10;;
10120;SDS011;5100;45.176;5.714;2022-07-06T03:23:51;1.27;;;1.17;;
10120;SDS011;5100;45.176;5.714;2022-07-06T03:26:17;2.60;;;1.20;;
10120;SDS011;5100;45.176;5.714;2022-07-06T03:28:44;3.78;;;1.30;;
10120;SDS011;5100;45.176;5.714;2022-07-06T03:31:10;1.83;;;1.10;;
10120;SDS011;5100;45.176;5.714;2022-07-06T03:33:37;5.78;;;1.50;;
10120;SDS011;5100;45.176;5.714;2022-07-06T03:36:04;2.40;;;1.17;;
10120;SDS011;5100;45.176;5.714;2022-07-06T03:38:31;4.15;;;1.55;;
10120;SDS011;5100;45.176;5.714;2022-07-06T03:40:57;1.40;;;1.30;;
10120;SDS011;5100;45.176;5.714;2022-07-06T03:43:23;2.45;;;1.52;;
10120;SDS011;5100;45.176;5.714;2022-07-06T03:45:50;1.62;;;1.30;;
10120;SDS011;5100;45.176;5.714;2022-07-06T03:48:17;1.70;;;1.30;;
10120;SDS011;5100;45.176;5.714;2022-07-06T03:50:44;2.15;;;1.20;;
10120;SDS011;5100;45.176;5.714;2022-07-06T03:53:10;1.83;;;1.20;;
10120;SDS011;5100;45.176;5.714;2022-07-06T03:55:37;2.25;;;1.45;;
10120;SDS011;5100;45.176;5.714;2022-07-06T03:58:03;1.40;;;1.30;;
10120;SDS011;5100;45.176;5.714;2022-07-06T04:00:29;2.72;;;1.40;;
10120;SDS011;5100;45.176;5.714;2022-07-06T04:02:56;2.75;;;1.50;;
10120;SDS011;5100;45.176;5.714;2022-07-06T04:05:22;1.48;;;1.30;;
10120;SDS011;5100;45.176;5.714;2022-07-06T04:07:49;3.85;;;1.40;;
10120;SDS011;5100;45.176;5.714;2022-07-06T04:10:16;4.03;;;1.20;;
10120;SDS011;5100;45.176;5.714;2022-07-06T04:12:44;4.28;;;1.40;;
10120;SDS011;5100;45.176;5.714;2022-07-06T04:15:11;2.90;;;1.33;;
10120;SDS011;5100;45.176;5.714;2022-07-06T04:17:38;6.72;;;1.98;;
10120;SDS011;5100;45.176;5.714;2022-07-06T04:20:22;1.58;;;1.25;;
10120;SDS011;5100;45.176;5.714;2022-07-06T04:22:50;4.22;;;1.52;;
10120;SDS011;5100;45.176;5.714;2022-07-06T04:25:16;1.50;;;1.35;;
10120;SDS011;5100;45.176;5.714;2022-07-06T04:27:43;2.55;;;1.30;;
10120;SDS011;5100;45.176;5.714;2022-07-06T04:30:10;2.00;;;1.40;;
10120;SDS011;5100;45.176;5.714;2022-07-06T04:32:38;1.15;;;1.10;;
10120;SDS011;5100;45.176;5.714;2022-07-06T04:35:04;1.70;;;1.17;;
10120;SDS011;5100;45.176;5.714;2022-07-06T04:37:31;2.42;;;1.60;;
10120;SDS011;5100;45.176;5.714;2022-07-06T04:39:58;2.03;;;1.20;;
10120;SDS011;5100;45.176;5.714;2022-07-06T04:42:24;4.03;;;1.40;;
10120;SDS011;5100;45.176;5.714;2022-07-06T04:44:51;1.40;;;1.30;;
10120;SDS011;5100;45.176;5.714;2022-07-06T04:47:17;2.50;;;1.62;;
10120;SDS011;5100;45.176;5.714;2022-07-06T04:49:44;1.40;;;1.30;;
10120;SDS011;5100;45.176;5.714;2022-07-06T04:52:11;1.75;;;1.25;;
10120;SDS011;5100;45.176;5.714;2022-07-06T04:54:38;3.40;;;1.50;;
10120;SDS011;5100;45.176;5.714;2022-07-06T04:57:04;4.12;;;1.58;;
10120;SDS011;5100;45.176;5.714;2022-07-06T04:59:30;3.87;;;1.42;;
10120;SDS011;5100;45.176;5.714;2022-07-06T05:01:57;2.83;;;1.40;;
10120;SDS011;5100;45.176;5.714;2022-07-06T05:04:24;3.45;;;1.60;;
10120;SDS011;5100;45.176;5.714;2022-07-06T05:06:50;1.52;;;1.42;;
10120;SDS011;5100;45.176;5.714;2022-07-06T05:09:16;3.78;;;1.62;;
10120;SDS011;5100;45.176;5.714;2022-07-06T05:11:43;2.83;;;1.60;;
10120;SDS011;5100;45.176;5.714;2022-07-06T05:14:11;2.28;;;1.37;;
10120;SDS011;5100;45.176;5.714;2022-07-06T05:16:37;1.62;;;1.50;;
10120;SDS011;5100;45.176;5.714;2022-07-06T05:19:03;3.55;;;1.75;;
10120;SDS011;5100;45.176;5.714;2022-07-06T05:21:30;1.45;;;1.35;;
10120;SDS011;5100;45.176;5.714;2022-07-06T05:23:56;2.20;;;1.40;;
10120;SDS011;5100;45.176;5.714;2022-07-06T05:26:22;1.48;;;1.20;;
10120;SDS011;5100;45.176;5.714;2022-07-06T05:28:48;1.80;;;1.37;;
10120;SDS011;5100;45.176;5.714;2022-07-06T05:31:15;1.40;;;1.30;;
10120;SDS011;5100;45.176;5.714;2022-07-06T05:33:41;2.62;;;1.50;;
10120;SDS011;5100;45.176;5.714;2022-07-06T05:36:08;1.62;;;1.15;;
10120;SDS011;5100;45.176;5.714;2022-07-06T05:38:35;3.40;;;1.55;;
10120;SDS011;5100;45.176;5.714;2022-07-06T05:41:01;1.55;;;1.45;;
10120;SDS011;5100;45.176;5.714;2022-07-06T05:43:27;4.05;;;1.40;;
10120;SDS011;5100;45.176;5.714;2022-07-06T05:45:54;2.00;;;1.25;;
10120;SDS011;5100;45.176;5.714;2022-07-06T05:48:20;2.20;;;1.50;;
10120;SDS011;5100;45.176;5.714;2022-07-06T05:51:05;3.62;;;1.60;;
10120;SDS011;5100;45.176;5.714;2022-07-06T05:53:32;2.22;;;1.23;;
10120;SDS011;5100;45.176;5.714;2022-07-06T05:55:59;2.85;;;1.50;;
10120;SDS011;5100;45.176;5.714;2022-07-06T05:58:26;9.15;;;2.40;;
10120;SDS011;5100;45.176;5.714;2022-07-06T06:00:53;2.80;;;1.70;;
10120;SDS011;5100;45.176;5.714;2022-07-06T06:03:19;9.93;;;1.98;;
10120;SDS011;5100;45.176;5.714;2022-07-06T06:05:46;5.55;;;1.77;;
10120;SDS011;5100;45.176;5.714;2022-07-06T06:08:12;2.35;;;1.60;;
10120;SDS011;5100;45.176;5.714;2022-07-06T06:10:38;7.72;;;1.73;;
10120;SDS011;5100;45.176;5.714;2022-07-06T06:13:05;7.00;;;1.92;;
10120;SDS011;5100;45.176;5.714;2022-07-06T06:15:32;5.57;;;2.05;;
10120;SDS011;5100;45.176;5.714;2022-07-06T06:17:59;17.95;;;2.47;;
10120;SDS011;5100;45.176;5.714;2022-07-06T06:20:25;4.40;;;2.00;;
10120;SDS011;5100;45.176;5.714;2022-07-06T06:22:53;2.60;;;1.30;;
10120;SDS011;5100;45.176;5.714;2022-07-06T06:25:26;3.83;;;1.60;;
10120;SDS011;5100;45.176;5.714;2022-07-06T06:27:57;6.62;;;1.87;;
10120;SDS011;5100;45.176;5.714;2022-07-06T06:30:23;3.58;;;1.85;;
10120;SDS011;5100;45.176;5.714;2022-07-06T06:32:50;5.78;;;2.08;;
10120;SDS011;5100;45.176;5.714;2022-07-06T06:35:16;6.78;;;1.55;;
10120;SDS011;5100;45.176;5.714;2022-07-06T06:37:43;2.92;;;1.50;;
10120;SDS011;5100;45.176;5.714;2022-07-06T06:40:09;2.80;;;1.70;;
10120;SDS011;5100;45.176;5.714;2022-07-06T06:42:36;1.50;;;1.20;;
10120;SDS011;5100;45.176;5.714;2022-07-06T06:45:05;5.78;;;1.70;;
10120;SDS011;5100;45.176;5.714;2022-07-06T06:47:31;5.25;;;1.45;;
10120;SDS011;5100;45.176;5.714;2022-07-06T06:49:57;3.58;;;1.25;;
10120;SDS011;5100;45.176;5.714;2022-07-06T06:52:23;5.10;;;1.42;;
10120;SDS011;5100;45.176;5.714;2022-07-06T06:54:49;7.07;;;1.65;;
10120;SDS011;5100;45.176;5.714;2022-07-06T06:57:15;5.65;;;1.80;;
10120;SDS011;5100;45.176;5.714;2022-07-06T06:59:42;6.57;;;2.03;;
10120;SDS011;5100;45.176;5.714;2022-07-06T07:02:08;5.55;;;1.40;;
10120;SDS011;5100;45.176;5.714;2022-07-06T07:04:34;3.42;;;1.48;;
10120;SDS011;5100;45.176;5.714;2022-07-06T07:07:00;3.25;;;1.58;;
10120;SDS011;5100;45.176;5.714;2022-07-06T07:09:26;1.40;;;1.20;;
10120;SDS011;5100;45.176;5.714;2022-07-06T07:11:52;2.20;;;1.52;;
10120;SDS011;5100;45.176;5.714;2022-07-06T07:14:20;6.12;;;1.37;;
10120;SDS011;5100;45.176;5.714;2022-07-06T07:16:46;1.85;;;1.33;;
10120;SDS011;5100;45.176;5.714;2022-07-06T07:19:12;4.00;;;1.50;;
10120;SDS011;5100;45.176;5.714;2022-07-06T07:21:38;2.45;;;1.33;;
10120;SDS011;5100;45.176;5.714;2022-07-06T07:24:04;1.70;;;1.30;;
10120;SDS011;5100;45.176;5.714;2022-07-06T07:26:30;3.22;;;1.37;;
10120;SDS011;5100;45.176;5.714;2022-07-06T07:28:57;3.72;;;1.40;;
10120;SDS011;5100;45.176;5.714;2022-07-06T07:31:23;1.65;;;1.12;;
10120;SDS011;5100;45.176;5.714;2022-07-06T07:33:49;6.78;;;1.70;;
10120;SDS011;5100;45.176;5.714;2022-07-06T07:36:15;5.15;;;1.80;;
10120;SDS011;5100;45.176;5.714;2022-07-06T07:38:44;4.43;;;1.80;;
10120;SDS011;5100;45.176;5.714;2022-07-06T07:41:10;6.07;;;2.37;;
10120;SDS011;5100;45.176;5.714;2022-07-06T07:43:39;3.37;;;1.50;;
10120;SDS011;5100;45.176;5.714;2022-07-06T07:46:05;5.15;;;1.80;;
10120;SDS011;5100;45.176;5.714;2022-07-06T07:48:32;2.10;;;1.40;;
10120;SDS011;5100;45.176;5.714;2022-07-06T07:50:59;3.83;;;1.50;;
10120;SDS011;5100;45.176;5.714;2022-07-06T07:53:25;2.37;;;1.87;;
10120;SDS011;5100;45.176;5.714;2022-07-06T07:55:51;14.60;;;2.20;;
10120;SDS011;5100;45.176;5.714;2022-07-06T07:58:18;4.28;;;1.62;;
10120;SDS011;5100;45.176;5.714;2022-07-06T08:00:44;1.67;;;1.58;;
10120;SDS011;5100;45.176;5.714;2022-07-06T08:03:12;2.20;;;1.52;;
10120;SDS011;5100;45.176;5.714;2022-07-06T08:05:38;2.85;;;1.30;;
10120;SDS011;5100;45.176;5.714;2022-07-06T08:08:04;4.10;;;1.50;;
10120;SDS011;5100;45.176;5.714;2022-07-06T08:10:31;2.92;;;1.30;;
10120;SDS011;5100;45.176;5.714;2022-07-06T08:12:57;4.45;;;1.25;;
10120;SDS011;5100;45.176;5.714;2022-07-06T08:15:23;2.67;;;1.25;;
10120;SDS011;5100;45.176;5.714;2022-07-06T08:17:49;1.85;;;1.33;;
10120;SDS011;5100;45.176;5.714;2022-07-06T08:20:15;3.92;;;1.30;;
10120;SDS011;5100;45.176;5.714;2022-07-06T08:22:41;3.65;;;1.80;;
10120;SDS011;5100;45.176;5.714;2022-07-06T08:25:08;2.37;;;1.48;;
10120;SDS011;5100;45.176;5.714;2022-07-06T08:27:34;3.55;;;1.60;;
10120;SDS011;5100;45.176;5.714;2022-07-06T08:30:01;5.12;;;1.60;;
10120;SDS011;5100;45.176;5.714;2022-07-06T08:32:29;1.77;;;1.50;;
10120;SDS011;5100;45.176;5.714;2022-07-06T08:34:55;3.33;;;1.73;;
10120;SDS011;5100;45.176;5.714;2022-07-06T08:37:21;7.43;;;1.87;;
10120;SDS011;5100;45.176;5.714;2022-07-06T08:39:47;1.75;;;1.40;;
10120;SDS011;5100;45.176;5.714;2022-07-06T08:42:14;1.40;;;1.30;;
10120;SDS011;5100;45.176;5.714;2022-07-06T08:44:42;2.33;;;1.50;;
10120;SDS011;5100;45.176;5.714;2022-07-06T08:47:10;4.62;;;1.70;;
10120;SDS011;5100;45.176;5.714;2022-07-06T08:49:37;5.45;;;1.42;;
10120;SDS011;5100;45.176;5.714;2022-07-06T08:52:04;4.68;;;1.50;;
10120;SDS011;5100;45.176;5.714;2022-07-06T08:54:34;2.08;;;1.60;;
10120;SDS011;5100;45.176;5.714;2022-07-06T08:57:01;1.83;;;1.50;;
10120;SDS011;5100;45.176;5.714;2022-07-06T08:59:28;1.40;;;1.30;;
10120;SDS011;5100;45.176;5.714;2022-07-06T09:01:55;3.40;;;1.65;;
10120;SDS011;5100;45.176;5.714;2022-07-06T09:04:21;2.08;;;1.60;;
10120;SDS011;5100;45.176;5.714;2022-07-06T09:06:48;5.32;;;1.70;;
10120;SDS011;5100;45.176;5.714;2022-07-06T09:09:20;2.92;;;1.50;;
10120;SDS011;5100;45.176;5.714;2022-07-06T09:11:48;6.05;;;1.65;;
10120;SDS011;5100;45.176;5.714;2022-07-06T09:14:14;3.05;;;1.45;;
10120;SDS011;5100;45.176;5.714;2022-07-06T09:16:41;4.45;;;1.75;;
10120;SDS011;5100;45.176;5.714;2022-07-06T09:19:08;2.45;;;1.60;;
10120;SDS011;5100;45.176;5.714;2022-07-06T09:21:36;1.83;;;1.45;;
10120;SDS011;5100;45.176;5.714;2022-07-06T09:24:07;5.45;;;1.65;;
10120;SDS011;5100;45.176;5.714;2022-07-06T09:26:35;1.83;;;1.40;;
10120;SDS011;5100;45.176;5.714;2022-07-06T09:29:01;3.75;;;1.77;;
10120;SDS011;5100;45.176;5.714;2022-07-06T09:31:27;3.22;;;1.80;;
10120;SDS011;5100;45.176;5.714;2022-07-06T09:33:57;3.83;;;1.62;;
10120;SDS011;5100;45.176;5.714;2022-07-06T09:36:46;3.80;;;1.62;;
10120;SDS011;5100;45.176;5.714;2022-07-06T09:39:18;5.12;;;2.00;;
10120;SDS011;5100;45.176;5.714;2022-07-06T09:41:52;6.15;;;2.00;;
10120;SDS011;5100;45.176;5.714;2022-07-06T09:47:01;1.77;;;1.60;;
10120;SDS011;5100;45.176;5.714;2022-07-06T09:49:32;5.10;;;1.75;;
10120;SDS011;5100;45.176;5.714;2022-07-06T09:52:00;8.70;;;2.08;;
10120;SDS011;5100;45.176;5.714;2022-07-06T09:54:30;7.05;;;1.80;;
10120;SDS011;5100;45.176;5.714;2022-07-06T09:56:57;3.62;;;1.52;;
10120;SDS011;5100;45.176;5.714;2022-07-06T09:59:25;2.80;;;1.37;;
10120;SDS011;5100;45.176;5.714;2022-07-06T10:01:53;5.22;;;1.50;;
10120;SDS011;5100;45.176;5.714;2022-07-06T10:04:22;3.33;;;1.52;;
10120;SDS011;5100;45.176;5.714;2022-07-06T10:06:49;7.53;;;1.90;;
10120;SDS011;5100;45.176;5.714;2022-07-06T10:09:16;1.85;;;1.60;;
10120;SDS011;5100;45.176;5.714;2022-07-06T10:11:47;5.82;;;1.85;;
10120;SDS011;5100;45.176;5.714;2022-07-06T10:14:21;2.53;;;1.40;;
10120;SDS011;5100;45.176;5.714;2022-07-06T10:16:53;3.17;;;1.65;;
10120;SDS011;5100;45.176;5.714;2022-07-06T10:19:24;1.67;;;1.30;;
10120;SDS011;5100;45.176;5.714;2022-07-06T10:21:51;7.32;;;1.67;;
10120;SDS011;5100;45.176;5.714;2022-07-06T10:24:17;3.33;;;2.08;;
10120;SDS011;5100;45.176;5.714;2022-07-06T10:26:45;5.62;;;1.80;;
10120;SDS011;5100;45.176;5.714;2022-07-06T10:29:12;7.30;;;1.70;;
10120;SDS011;5100;45.176;5.714;2022-07-06T10:31:40;6.55;;;1.83;;
10120;SDS011;5100;45.176;5.714;2022-07-06T10:34:10;2.55;;;1.50;;
10120;SDS011;5100;45.176;5.714;2022-07-06T10:36:41;4.70;;;1.77;;
10120;SDS011;5100;45.176;5.714;2022-07-06T10:39:08;2.72;;;1.40;;
10120;SDS011;5100;45.176;5.714;2022-07-06T10:41:54;3.08;;;1.65;;
10120;SDS011;5100;45.176;5.714;2022-07-06T10:44:21;5.00;;;1.50;;
10120;SDS011;5100;45.176;5.714;2022-07-06T10:46:51;3.25;;;1.70;;
10120;SDS011;5100;45.176;5.714;2022-07-06T10:49:19;5.12;;;1.52;;
10120;SDS011;5100;45.176;5.714;2022-07-06T10:51:45;2.00;;;1.70;;
10120;SDS011;5100;45.176;5.714;2022-07-06T10:54:12;2.92;;;1.42;;
10120;SDS011;5100;45.176;5.714;2022-07-06T10:56:40;3.87;;;2.10;;
10120;SDS011;5100;45.176;5.714;2022-07-06T10:59:11;2.85;;;1.77;;
10120;SDS011;5100;45.176;5.714;2022-07-06T11:02:11;18.50;;;3.08;;
10120;SDS011;5100;45.176;5.714;2022-07-06T11:04:44;3.60;;;1.90;;
10120;SDS011;5100;45.176;5.714;2022-07-06T11:07:16;3.05;;;1.67;;
10120;SDS011;5100;45.176;5.714;2022-07-06T11:09:55;3.05;;;1.70;;
10120;SDS011;5100;45.176;5.714;2022-07-06T11:12:25;2.50;;;1.60;;
10120;SDS011;5100;45.176;5.714;2022-07-06T11:14:52;3.33;;;1.50;;
10120;SDS011;5100;45.176;5.714;2022-07-06T11:17:20;6.75;;;1.85;;
10120;SDS011;5100;45.176;5.714;2022-07-06T11:22:35;1.58;;;1.37;;
10120;SDS011;5100;45.176;5.714;2022-07-06T11:25:03;2.70;;;1.60;;
10120;SDS011;5100;45.176;5.714;2022-07-06T11:27:30;5.18;;;1.67;;
10120;SDS011;5100;45.176;5.714;2022-07-06T11:29:56;1.50;;;1.30;;
10120;SDS011;5100;45.176;5.714;2022-07-06T11:32:23;1.85;;;1.45;;
10120;SDS011;5100;45.176;5.714;2022-07-06T11:34:50;3.35;;;1.80;;
10120;SDS011;5100;45.176;5.714;2022-07-06T11:37:16;2.10;;;1.60;;
10120;SDS011;5100;45.176;5.714;2022-07-06T11:39:45;1.77;;;1.45;;
10120;SDS011;5100;45.176;5.714;2022-07-06T11:42:12;3.35;;;1.60;;
10120;SDS011;5100;45.176;5.714;2022-07-06T11:44:40;3.85;;;1.62;;
10120;SDS011;5100;45.176;5.714;2022-07-06T11:47:08;2.85;;;1.40;;
10120;SDS011;5100;45.176;5.714;2022-07-06T11:49:35;1.92;;;1.65;;
10120;SDS011;5100;45.176;5.714;2022-07-06T11:52:10;3.00;;;1.42;;
10120;SDS011;5100;45.176;5.714;2022-07-06T11:54:40;6.28;;;1.58;;
10120;SDS011;5100;45.176;5.714;2022-07-06T11:57:08;4.30;;;1.65;;
10120;SDS011;5100;45.176;5.714;2022-07-06T11:59:36;2.87;;;1.62;;
10120;SDS011;5100;45.176;5.714;2022-07-06T12:04:30;2.92;;;2.15;;
10120;SDS011;5100;45.176;5.714;2022-07-06T12:07:05;2.45;;;1.58;;
10120;SDS011;5100;45.176;5.714;2022-07-06T12:09:37;1.48;;;1.35;;
10120;SDS011;5100;45.176;5.714;2022-07-06T12:12:05;4.12;;;1.75;;
10120;SDS011;5100;45.176;5.714;2022-07-06T12:14:33;3.53;;;1.62;;
10120;SDS011;5100;45.176;5.714;2022-07-06T12:17:05;3.10;;;1.48;;
10120;SDS011;5100;45.176;5.714;2022-07-06T12:19:33;4.20;;;1.62;;
10120;SDS011;5100;45.176;5.714;2022-07-06T12:22:00;2.85;;;1.45;;
10120;SDS011;5100;45.176;5.714;2022-07-06T12:24:30;4.10;;;1.52;;
10120;SDS011;5100;45.176;5.714;2022-07-06T12:26:57;3.35;;;1.60;;
10120;SDS011;5100;45.176;5.714;2022-07-06T12:29:34;4.53;;;1.70;;
10120;SDS011;5100;45.176;5.714;2022-07-06T12:32:01;2.12;;;1.60;;
10120;SDS011;5100;45.176;5.714;2022-07-06T12:34:27;4.45;;;1.60;;
10120;SDS011;5100;45.176;5.714;2022-07-06T12:37:05;2.50;;;1.70;;
10120;SDS011;5100;45.176;5.714;2022-07-06T12:39:39;2.55;;;1.52;;
10120;SDS011;5100;45.176;5.714;2022-07-06T12:42:13;4.82;;;1.52;;
10120;SDS011;5100;45.176;5.714;2022-07-06T12:44:42;4.20;;;1.50;;
10120;SDS011;5100;45.176;5.714;2022-07-06T12:47:12;5.20;;;1.70;;
10120;SDS011;5100;45.176;5.714;2022-07-06T12:49:42;3.95;;;1.75;;
10120;SDS011;5100;45.176;5.714;2022-07-06T12:52:14;4.55;;;1.70;;
10120;SDS011;5100;45.176;5.714;2022-07-06T12:54:42;2.20;;;1.60;;
10120;SDS011;5100;45.176;5.714;2022-07-06T12:59:40;4.53;;;1.52;;
10120;SDS011;5100;45.176;5.714;2022-07-06T13:02:16;2.37;;;1.62;;
10120;SDS011;5100;45.176;5.714;2022-07-06T13:04:49;4.80;;;1.80;;
10120;SDS011;5100;45.176;5.714;2022-07-06T13:07:28;2.28;;;1.40;;
10120;SDS011;5100;45.176;5.714;2022-07-06T13:09:57;2.85;;;1.60;;
10120;SDS011;5100;45.176;5.714;2022-07-06T13:12:24;3.50;;;1.75;;
10120;SDS011;5100;45.176;5.714;2022-07-06T13:14:50;4.43;;;1.70;;
10120;SDS011;5100;45.176;5.714;2022-07-06T13:17:17;6.00;;;1.80;;
10120;SDS011;5100;45.176;5.714;2022-07-06T13:19:43;3.45;;;1.67;;
10120;SDS011;5100;45.176;5.714;2022-07-06T13:22:09;5.40;;;1.80;;
10120;SDS011;5100;45.176;5.714;2022-07-06T13:24:35;4.05;;;1.83;;
10120;SDS011;5100;45.176;5.714;2022-07-06T13:27:02;4.00;;;2.03;;
10120;SDS011;5100;45.176;5.714;2022-07-06T13:29:28;4.85;;;1.90;;
10120;SDS011;5100;45.176;5.714;2022-07-06T13:31:54;2.50;;;1.60;;
10120;SDS011;5100;45.176;5.714;2022-07-06T13:34:21;3.08;;;1.62;;
10120;SDS011;5100;45.176;5.714;2022-07-06T13:36:47;1.70;;;1.60;;
10120;SDS011;5100;45.176;5.714;2022-07-06T13:39:13;2.22;;;1.67;;
10120;SDS011;5100;45.176;5.714;2022-07-06T13:41:39;3.30;;;1.70;;
10120;SDS011;5100;45.176;5.714;2022-07-06T13:44:06;3.72;;;1.60;;
10120;SDS011;5100;45.176;5.714;2022-07-06T13:46:32;3.47;;;1.73;;
10120;SDS011;5100;45.176;5.714;2022-07-06T13:48:58;6.15;;;1.90;;
10120;SDS011;5100;45.176;5.714;2022-07-06T13:51:25;2.17;;;1.60;;
10120;SDS011;5100;45.176;5.714;2022-07-06T13:53:52;3.60;;;1.80;;
10120;SDS011;5100;45.176;5.714;2022-07-06T13:56:18;2.55;;;1.77;;
10120;SDS011;5100;45.176;5.714;2022-07-06T13:58:45;5.07;;;1.67;;
10120;SDS011;5100;45.176;5.714;2022-07-06T14:01:12;4.40;;;1.70;;
10120;SDS011;5100;45.176;5.714;2022-07-06T14:03:39;2.53;;;1.70;;
10120;SDS011;5100;45.176;5.714;2022-07-06T14:06:05;4.25;;;1.75;;
10120;SDS011;5100;45.176;5.714;2022-07-06T14:08:33;4.70;;;1.80;;
10120;SDS011;5100;45.176;5.714;2022-07-06T14:11:01;3.37;;;1.60;;
10120;SDS011;5100;45.176;5.714;2022-07-06T14:13:27;2.60;;;1.70;;
10120;SDS011;5100;45.176;5.714;2022-07-06T14:15:54;3.45;;;1.87;;
10120;SDS011;5100;45.176;5.714;2022-07-06T14:18:21;5.85;;;1.60;;
10120;SDS011;5100;45.176;5.714;2022-07-06T14:20:47;1.70;;;1.60;;
10120;SDS011;5100;45.176;5.714;2022-07-06T14:23:14;5.15;;;1.67;;
10120;SDS011;5100;45.176;5.714;2022-07-06T14:25:42;4.07;;;1.80;;
10120;SDS011;5100;45.176;5.714;2022-07-06T14:28:08;3.28;;;1.55;;
10120;SDS011;5100;45.176;5.714;2022-07-06T14:30:36;4.30;;;1.85;;
10120;SDS011;5100;45.176;5.714;2022-07-06T14:33:03;1.65;;;1.50;;
10120;SDS011;5100;45.176;5.714;2022-07-06T14:35:43;2.50;;;1.60;;
10120;SDS011;5100;45.176;5.714;2022-07-06T14:38:13;2.67;;;1.85;;
10120;SDS011;5100;45.176;5.714;2022-07-06T14:40:41;6.15;;;1.75;;
10120;SDS011;5100;45.176;5.714;2022-07-06T14:43:07;3.78;;;1.60;;
10120;SDS011;5100;45.176;5.714;2022-07-06T14:45:34;2.28;;;1.60;;
10120;SDS011;5100;45.176;5.714;2022-07-06T14:48:00;3.85;;;1.65;;
10120;SDS011;5100;45.176;5.714;2022-07-06T14:50:26;3.20;;;1.80;;
10120;SDS011;5100;45.176;5.714;2022-07-06T14:52:53;4.82;;;1.77;;
10120;SDS011;5100;45.176;5.714;2022-07-06T14:55:20;2.55;;;1.80;;
10120;SDS011;5100;45.176;5.714;2022-07-06T14:57:46;5.10;;;1.60;;
10120;SDS011;5100;45.176;5.714;2022-07-06T15:00:13;3.30;;;1.67;;
10120;SDS011;5100;45.176;5.714;2022-07-06T15:02:40;3.35;;;1.65;;
10120;SDS011;5100;45.176;5.714;2022-07-06T15:05:08;2.25;;;1.62;;
10120;SDS011;5100;45.176;5.714;2022-07-06T15:07:35;2.58;;;1.60;;
10120;SDS011;5100;45.176;5.714;2022-07-06T15:10:02;5.28;;;1.85;;
10120;SDS011;5100;45.176;5.714;2022-07-06T15:12:29;2.78;;;1.40;;